Strona główna
METAR-TAF:

METAR-TAF

Lotnisko :

Baza lotnicza

Santos, São Paulo, Brazylia

Szerokość geograficzna: 23-56S, Długość geograficzna: 046-18W, wysokość: 3 m

Aktualna obserwacja pogody

Raport powstał 15 godziny i 26 minut temu, godzina 21:00 UTC
Wiatr 2 kt od południowy wschód
Temperatura 26°C
Wilgotność 84%
Ciśnienie 1008 hPa
Widzialność 10 km lub więcej
Brak chmur poniżej 1500 m i brak chmur cumulonimbus

METAR: SBST 022100Z 13002KT CAVOK 26/23 Q1008

czas: 09:26 (12:26 UTC)


TAF: brakujący

Obserwacja i prognoza pogody dla ponad 4000 lotnisk (raport METAR i TAF).

Dostępne stacje oznaczono żółtymi i czerwonymi punktami na mapie.

Najedź kursorem aby zobaczyć nazwę stacji.

Kliknij aby zobaczyć obserwacje i prognozy pogody.

Aby zmienić mapę: kliknij na zielony przycisk z czarnym krzyżykiem, aby powiększyć; na zielony przycisk z myślnikiem, aby pomniejszyć; na zielone strzałki, aby przejść do map sąsiednich.


METAR-TAF: